Time;durP1;ratioP1;P1;durP2;ratioP2;P2;SDS_P1;SDS_P2;PMS_P1;PMS_P2;Temp;Humidity;BMP_temperature;BMP_pressure;BME280_temperature;BME280_humidity;BME280_pressure;Samples;Min_cycle;Max_cycle;Signal;HPM_P1;HPM_P2
2023/10/12 00:01:14;;;;;;;26.58;13.20;;;;;;;;;;2081237;28;20045;-76
2023/10/12 00:02:35;;;;;;;24.10;13.57;;;;;;;;;;2076396;28;20109;-74
2023/10/12 00:03:58;;;;;;;26.90;13.05;;;;;;;;;;2083453;28;20130;-75
2023/10/12 00:05:20;;;;;;;21.23;12.07;;;;;;;;;;2082018;28;20445;-76
2023/10/12 00:06:43;;;;;;;26.02;12.95;;;;;;;;;;2077700;28;20378;-75
2023/10/12 00:08:10;;;;;;;23.83;12.13;;;;;;;;;;2077723;28;20320;-74
2023/10/12 00:09:31;;;;;;;27.80;12.73;;;;;;;;;;2070021;28;20548;-76
2023/10/12 00:10:55;;;;;;;28.00;14.02;;;;;;;;;;2071426;28;20092;-75
2023/10/12 00:12:21;;;;;;;23.80;14.20;;;;;;;;;;2073395;28;20041;-75
2023/10/12 00:13:43;;;;;;;26.05;12.85;;;;;;;;;;2078896;28;20672;-72
2023/10/12 00:15:17;;;;;;;25.73;13.02;;;;;;;;;;2065040;28;20092;-73
2023/10/12 00:16:38;;;;;;;25.45;13.30;;;;;;;;;;2083181;28;20443;-72
2023/10/12 00:18:03;;;;;;;27.58;13.88;;;;;;;;;;2068395;28;20543;-72
2023/10/12 00:19:25;;;;;;;28.75;13.55;;;;;;;;;;2072956;28;20672;-71
2023/10/12 00:20:51;;;;;;;27.00;13.32;;;;;;;;;;2080541;28;20099;-71
2023/10/12 00:22:15;;;;;;;29.70;13.68;;;;;;;;;;2076115;28;20050;-72
2023/10/12 00:23:37;;;;;;;25.88;13.00;;;;;;;;;;2062638;28;20089;-72
2023/10/12 00:24:59;;;;;;;26.23;13.57;;;;;;;;;;2078994;28;20033;-72
2023/10/12 00:26:22;;;;;;;33.53;16.17;;;;;;;;;;2074766;28;20038;-73
2023/10/12 00:27:43;;;;;;;26.92;14.15;;;;;;;;;;2065223;28;20030;-71
2023/10/12 00:29:07;;;;;;;27.30;14.85;;;;;;;;;;2069934;28;20080;-72
2023/10/12 00:30:31;;;;;;;30.15;14.63;;;;;;;;;;2070225;28;20559;-72
2023/10/12 00:31:52;;;;;;;32.72;15.13;;;;;;;;;;2078611;28;20025;-71
2023/10/12 00:33:13;;;;;;;33.70;15.40;;;;;;;;;;2073777;28;20037;-72
2023/10/12 00:34:39;;;;;;;34.00;14.40;;;;;;;;;;2061637;28;20456;-72
2023/10/12 00:36:19;;;;;;;31.70;17.20;;;;;;;;;;2029830;28;1064105;-72
2023/10/12 00:37:43;;;;;;;29.80;14.82;;;;;;;;;;2072407;28;20048;-71
2023/10/12 00:39:09;;;;;;;35.67;15.93;;;;;;;;;;2074266;28;20041;-74
2023/10/12 00:40:31;;;;;;;36.50;14.73;;;;;;;;;;2071111;28;20081;-71
2023/10/12 00:41:52;;;;;;;29.77;13.98;;;;;;;;;;2074043;28;20026;-72
2023/10/12 00:43:15;;;;;;;32.63;16.33;;;;;;;;;;2073718;28;21428;-74
2023/10/12 00:44:40;;;;;;;31.85;14.88;;;;;;;;;;2061006;28;20034;-71
2023/10/12 00:46:16;;;;;;;33.08;15.25;;;;;;;;;;2068544;28;20425;-72
2023/10/12 00:47:48;;;;;;;26.42;15.00;;;;;;;;;;2088689;28;20029;-73
2023/10/12 00:50:36;;;;;;;35.45;15.35;;;;;;;;;;2080975;28;19963;-72
2023/10/12 00:52:13;;;;;;;37.13;15.77;;;;;;;;;;2084111;28;20705;-72
2023/10/12 00:53:35;;;;;;;26.77;14.48;;;;;;;;;;2078941;28;20060;-72
2023/10/12 00:55:04;;;;;;;36.47;15.10;;;;;;;;;;2080805;28;20365;-72
2023/10/12 00:56:25;;;;;;;36.80;17.00;;;;;;;;;;2079983;28;20508;-71
2023/10/12 00:57:46;;;;;;;31.45;15.70;;;;;;;;;;2072630;28;20064;-72
2023/10/12 00:59:07;;;;;;;30.80;15.27;;;;;;;;;;2073334;28;20026;-72
2023/10/12 01:00:27;;;;;;;32.22;17.02;;;;;;;;;;2073926;28;20653;-72
2023/10/12 01:01:49;;;;;;;31.75;16.13;;;;;;;;;;2066007;28;20038;-72
2023/10/12 01:03:30;;;;;;;34.63;16.55;;;;;;;;;;2073714;28;20041;-73
2023/10/12 01:04:53;;;;;;;35.67;16.90;;;;;;;;;;2075504;28;20551;-73
2023/10/12 01:07:38;;;;;;;33.60;16.30;;;;;;;;;;2073337;28;20041;-73
2023/10/12 01:09:04;;;;;;;34.08;17.58;;;;;;;;;;2075867;28;20456;-72
2023/10/12 01:10:30;;;;;;;26.20;15.27;;;;;;;;;;2079198;28;20044;-73
2023/10/12 01:12:34;;;;;;;40.35;18.50;;;;;;;;;;2078910;28;20038;-72
2023/10/12 01:13:35;;;;;;;36.20;17.38;;;;;;;;;;2078428;28;20488;-72
2023/10/12 01:14:56;;;;;;;33.88;17.90;;;;;;;;;;2076050;28;20083;-72
2023/10/12 01:16:23;;;;;;;35.13;16.55;;;;;;;;;;2081183;28;20657;-72
2023/10/12 01:17:44;;;;;;;34.83;18.63;;;;;;;;;;2078233;28;20134;-72
2023/10/12 01:19:05;;;;;;;31.42;16.17;;;;;;;;;;2079396;28;20114;-73
2023/10/12 01:20:26;;;;;;;33.85;16.40;;;;;;;;;;2079646;28;20041;-73
2023/10/12 01:21:48;;;;;;;37.10;17.13;;;;;;;;;;2087495;28;20037;-71
2023/10/12 01:23:08;;;;;;;39.90;19.02;;;;;;;;;;2083898;28;20033;-76
2023/10/12 01:24:30;;;;;;;35.70;17.00;;;;;;;;;;2078873;28;20519;-75
2023/10/12 01:25:51;;;;;;;32.22;17.30;;;;;;;;;;2083682;28;20353;-75
2023/10/12 01:27:12;;;;;;;35.65;17.42;;;;;;;;;;2071634;28;20034;-76
2023/10/12 01:28:33;;;;;;;37.53;18.65;;;;;;;;;;2076173;28;20029;-76
2023/10/12 01:30:11;;;;;;;36.20;17.67;;;;;;;;;;2078430;28;20063;-78
2023/10/12 01:31:35;;;;;;;41.65;18.92;;;;;;;;;;2079436;28;20029;-77
2023/10/12 01:32:59;;;;;;;36.67;17.23;;;;;;;;;;2085429;28;20037;-77
2023/10/12 01:34:24;;;;;;;33.70;18.08;;;;;;;;;;2079301;28;20405;-76
2023/10/12 01:35:50;;;;;;;34.78;17.95;;;;;;;;;;2085851;28;20392;-77
2023/10/12 01:37:20;;;;;;;40.75;19.30;;;;;;;;;;2076220;28;20468;-78
2023/10/12 01:38:43;;;;;;;37.25;18.02;;;;;;;;;;2067591;28;20038;-77
2023/10/12 01:41:26;;;;;;;38.08;19.05;;;;;;;;;;2069585;28;20034;-78
2023/10/12 01:44:10;;;;;;;35.20;18.00;;;;;;;;;;2071892;28;20038;-76
2023/10/12 01:45:40;;;;;;;43.10;19.92;;;;;;;;;;2074686;28;20033;-77
2023/10/12 01:47:01;;;;;;;38.85;18.73;;;;;;;;;;2068040;28;20722;-77
2023/10/12 01:48:22;;;;;;;37.22;18.65;;;;;;;;;;2067806;28;20042;-77
2023/10/12 01:49:46;;;;;;;35.07;17.57;;;;;;;;;;2074809;28;20064;-76
2023/10/12 01:51:14;;;;;;;37.88;19.17;;;;;;;;;;2060489;28;20451;-77
2023/10/12 01:52:35;;;;;;;35.58;18.70;;;;;;;;;;2068509;28;20493;-78
2023/10/12 01:53:56;;;;;;;35.97;17.95;;;;;;;;;;2068866;28;20049;-75
2023/10/12 01:55:22;;;;;;;38.20;20.27;;;;;;;;;;2071339;28;20041;-77
2023/10/12 01:56:46;;;;;;;35.55;18.73;;;;;;;;;;2077291;28;20068;-74
2023/10/12 01:58:07;;;;;;;33.67;16.95;;;;;;;;;;2084987;28;20727;-78
2023/10/12 01:59:28;;;;;;;37.90;17.83;;;;;;;;;;2082812;28;20029;-79
2023/10/12 02:00:51;;;;;;;38.95;19.08;;;;;;;;;;2076569;28;20500;-75
2023/10/12 02:02:14;;;;;;;32.25;17.75;;;;;;;;;;2069002;28;20104;-75
2023/10/12 02:03:42;;;;;;;39.17;20.30;;;;;;;;;;2074200;28;20041;-77
2023/10/12 02:05:03;;;;;;;34.95;19.80;;;;;;;;;;2076687;28;20543;-76
2023/10/12 02:06:28;;;;;;;45.20;21.98;;;;;;;;;;2078297;28;20037;-75
2023/10/12 02:07:52;;;;;;;39.15;18.70;;;;;;;;;;2084610;28;20075;-76
2023/10/12 02:09:15;;;;;;;40.70;20.90;;;;;;;;;;2080506;28;20079;-76
2023/10/12 02:10:43;;;;;;;44.25;23.75;;;;;;;;;;2087116;28;20033;-77
2023/10/12 02:12:12;;;;;;;39.58;20.60;;;;;;;;;;2079571;28;20311;-73
2023/10/12 02:13:34;;;;;;;40.83;19.80;;;;;;;;;;2083860;28;20037;-76
2023/10/12 02:14:55;;;;;;;42.10;21.77;;;;;;;;;;2080535;28;20052;-76
2023/10/12 02:16:23;;;;;;;46.92;21.23;;;;;;;;;;2080126;28;20082;-77
2023/10/12 02:17:49;;;;;;;40.58;19.55;;;;;;;;;;2077205;28;20095;-76
2023/10/12 02:19:19;;;;;;;60.05;25.05;;;;;;;;;;2077652;28;20045;-76
2023/10/12 02:20:54;;;;;;;52.53;23.10;;;;;;;;;;2078377;28;20036;-76
2023/10/12 02:22:23;;;;;;;45.28;22.75;;;;;;;;;;2078124;28;20330;-75
2023/10/12 02:26:40;;;;;;;50.97;22.02;;;;;;;;;;2078719;28;20099;-76
2023/10/12 02:28:03;;;;;;;44.08;20.55;;;;;;;;;;2068492;28;21295;-75
2023/10/12 02:29:24;;;;;;;48.80;23.77;;;;;;;;;;2071050;28;20080;-76
2023/10/12 02:30:49;;;;;;;43.75;21.55;;;;;;;;;;2070434;28;20037;-78
2023/10/12 02:32:23;;;;;;;47.72;21.90;;;;;;;;;;2077158;28;20095;-75
2023/10/12 02:33:44;;;;;;;45.13;23.65;;;;;;;;;;2068403;28;20042;-77
2023/10/12 02:35:11;;;;;;;41.92;20.67;;;;;;;;;;2078112;28;20114;-74
2023/10/12 02:36:32;;;;;;;43.13;21.83;;;;;;;;;;2062044;28;20098;-78
2023/10/12 02:37:53;;;;;;;50.53;21.75;;;;;;;;;;2078717;28;20042;-78
2023/10/12 02:39:20;;;;;;;51.15;24.27;;;;;;;;;;2070698;28;20457;-77
2023/10/12 02:40:45;;;;;;;53.70;24.75;;;;;;;;;;2083665;28;20091;-77
2023/10/12 02:43:32;;;;;;;46.95;24.08;;;;;;;;;;2079194;28;20500;-76
2023/10/12 02:46:22;;;;;;;47.40;22.52;;;;;;;;;;2080974;28;20038;-77
2023/10/12 02:47:45;;;;;;;47.10;21.63;;;;;;;;;;2082826;28;20041;-75
2023/10/12 02:49:06;;;;;;;46.17;21.27;;;;;;;;;;2074672;28;20038;-77
2023/10/12 02:50:29;;;;;;;44.38;22.58;;;;;;;;;;2075227;28;20030;-80
2023/10/12 02:51:51;;;;;;;44.47;21.90;;;;;;;;;;2074486;28;20030;-77
2023/10/12 02:53:12;;;;;;;46.65;22.70;;;;;;;;;;2065988;28;20034;-77
2023/10/12 02:54:39;;;;;;;45.07;21.23;;;;;;;;;;2063213;28;20105;-78
2023/10/12 02:56:04;;;;;;;54.00;24.75;;;;;;;;;;2070418;28;20435;-78
2023/10/12 02:57:25;;;;;;;44.30;22.17;;;;;;;;;;2069704;28;20078;-78
2023/10/12 02:58:46;;;;;;;43.47;22.02;;;;;;;;;;2073448;28;20085;-76
2023/10/12 03:00:12;;;;;;;48.53;24.23;;;;;;;;;;2074337;28;20095;-76
2023/10/12 03:01:38;;;;;;;55.58;24.63;;;;;;;;;;2077494;28;20033;-77
2023/10/12 03:03:07;;;;;;;44.83;22.27;;;;;;;;;;2074326;28;20115;-77
2023/10/12 03:04:29;;;;;;;51.95;25.95;;;;;;;;;;2071136;28;20034;-77
2023/10/12 03:05:51;;;;;;;46.20;23.63;;;;;;;;;;2071484;28;20092;-76
2023/10/12 03:07:22;;;;;;;48.95;23.20;;;;;;;;;;2070039;28;20066;-78
2023/10/12 03:10:26;;;;;;;44.20;22.45;;;;;;;;;;2073182;28;20029;-77
2023/10/12 03:11:47;;;;;;;51.92;24.15;;;;;;;;;;2076033;28;20033;-76
2023/10/12 03:13:19;;;;;;;51.23;23.97;;;;;;;;;;2072244;28;20037;-75
2023/10/12 03:14:41;;;;;;;44.58;20.95;;;;;;;;;;2070177;28;20047;-78
2023/10/12 03:17:45;;;;;;;53.45;26.25;;;;;;;;;;2077370;28;20037;-77
2023/10/12 03:19:21;;;;;;;49.00;22.85;;;;;;;;;;2081608;28;20087;-76
2023/10/12 03:21:04;;;;;;;45.22;23.25;;;;;;;;;;2081269;28;20376;-77
2023/10/12 03:22:31;;;;;;;48.22;25.42;;;;;;;;;;2084453;28;20334;-77
2023/10/12 03:23:56;;;;;;;47.80;24.67;;;;;;;;;;2079940;28;20026;-78
2023/10/12 03:25:19;;;;;;;53.60;25.83;;;;;;;;;;2077886;28;20749;-77
2023/10/12 03:26:40;;;;;;;48.53;22.92;;;;;;;;;;2072157;28;20034;-77
2023/10/12 03:28:11;;;;;;;55.72;25.65;;;;;;;;;;2077769;28;20330;-77
2023/10/12 03:29:32;;;;;;;50.08;23.30;;;;;;;;;;2088785;28;20041;-77
2023/10/12 03:30:53;;;;;;;51.27;26.50;;;;;;;;;;2086603;28;20331;-77
2023/10/12 03:32:22;;;;;;;52.13;23.88;;;;;;;;;;2085377;28;20439;-77
2023/10/12 03:33:46;;;;;;;49.33;25.27;;;;;;;;;;2082729;28;20037;-78
2023/10/12 03:35:12;;;;;;;50.20;24.27;;;;;;;;;;2090125;28;20041;-77
2023/10/12 03:36:36;;;;;;;46.10;22.55;;;;;;;;;;2089280;28;20049;-77
2023/10/12 03:38:12;;;;;;;53.42;23.73;;;;;;;;;;2082487;28;20068;-78
2023/10/12 03:39:58;;;;;;;51.28;23.92;;;;;;;;;;2080508;28;20037;-78
2023/10/12 03:42:47;;;;;;;45.78;22.60;;;;;;;;;;2078792;28;20483;-75
2023/10/12 03:44:17;;;;;;;44.45;23.15;;;;;;;;;;2087863;28;20041;-73
2023/10/12 03:45:48;;;;;;;42.53;22.73;;;;;;;;;;2089211;28;20028;-73
2023/10/12 03:48:50;;;;;;;43.78;22.52;;;;;;;;;;2082236;28;20091;-72
2023/10/12 03:50:16;;;;;;;44.88;24.48;;;;;;;;;;2082744;28;20029;-73
2023/10/12 03:51:46;;;;;;;45.03;20.13;;;;;;;;;;2082620;28;20137;-72
2023/10/12 03:53:07;;;;;;;36.78;19.33;;;;;;;;;;2086372;28;20185;-72
2023/10/12 03:54:32;;;;;;;40.28;20.50;;;;;;;;;;2075571;28;20152;-72
2023/10/12 03:55:58;;;;;;;40.05;19.48;;;;;;;;;;2081765;28;20036;-72
2023/10/12 03:57:26;;;;;;;43.90;21.63;;;;;;;;;;2084766;28;20025;-73
2023/10/12 03:58:58;;;;;;;42.00;21.15;;;;;;;;;;2081000;28;20037;-72
2023/10/12 04:01:41;;;;;;;49.65;21.50;;;;;;;;;;2084608;28;20056;-75
2023/10/12 04:03:10;;;;;;;;;;;;;;;;;;2093912;28;20029;-73
2023/10/12 04:04:46;;;;;;;44.95;20.08;;;;;;;;;;2085109;28;19912;-73
2023/10/12 04:06:15;;;;;;;43.75;19.95;;;;;;;;;;2084747;28;20037;-73
2023/10/12 04:09:15;;;;;;;40.20;22.13;;;;;;;;;;2082366;28;20032;-73
2023/10/12 04:12:35;;;;;;;40.20;21.42;;;;;;;;;;2085327;28;20045;-72
2023/10/12 04:14:10;;;;;;;38.17;19.42;;;;;;;;;;2078621;28;20041;-72
2023/10/12 04:15:36;;;;;;;42.60;20.25;;;;;;;;;;2076751;28;20029;-73
2023/10/12 04:17:07;;;;;;;41.47;21.52;;;;;;;;;;2079190;28;20269;-72
2023/10/12 04:18:29;;;;;;;40.00;20.85;;;;;;;;;;2071944;28;20049;-71
2023/10/12 04:21:35;;;;;;;35.15;20.15;;;;;;;;;;2073491;28;20099;-72
2023/10/12 04:24:46;;;;;;;44.40;20.40;;;;;;;;;;2071790;28;20370;-73
2023/10/12 04:27:47;;;;;;;44.05;21.48;;;;;;;;;;2068822;28;21290;-72
2023/10/12 04:29:10;;;;;;;38.88;21.50;;;;;;;;;;2070930;28;20033;-72
2023/10/12 04:31:12;;;;;;;38.17;19.48;;;;;;;;;;2070052;28;20096;-74
2023/10/12 04:32:36;;;;;;;39.38;19.50;;;;;;;;;;2074214;28;20041;-72
2023/10/12 04:35:51;;;;;;;36.55;18.85;;;;;;;;;;2074780;28;20454;-72
2023/10/12 04:37:09;;;;;;;42.17;18.98;;;;;;;;;;2073077;28;20046;-73
2023/10/12 04:40:26;;;;;;;39.88;19.63;;;;;;;;;;2072673;28;20048;-73
2023/10/12 04:43:06;;;;;;;36.40;20.20;;;;;;;;;;2074191;28;20033;-74
2023/10/12 04:47:30;;;;;;;43.45;20.25;;;;;;;;;;2075231;28;20104;-73
2023/10/12 04:49:13;;;;;;;41.08;19.63;;;;;;;;;;2069434;28;20038;-73
2023/10/12 04:51:18;;;;;;;37.78;19.27;;;;;;;;;;2070907;28;20472;-74
2023/10/12 04:52:24;;;;;;;37.60;20.55;;;;;;;;;;2071547;28;20058;-75
2023/10/12 04:53:58;;;;;;;44.72;21.10;;;;;;;;;;2075797;28;20029;-75
2023/10/12 04:55:22;;;;;;;40.28;20.33;;;;;;;;;;2070930;28;20034;-76
2023/10/12 04:56:56;;;;;;;42.08;20.70;;;;;;;;;;2070165;28;20026;-76
2023/10/12 04:58:32;;;;;;;43.40;21.13;;;;;;;;;;2077889;28;20043;-79
2023/10/12 05:01:28;;;;;;;35.08;18.73;;;;;;;;;;2081851;28;20721;-78
2023/10/12 05:04:26;;;;;;;46.10;21.95;;;;;;;;;;2081574;28;20037;-78
2023/10/12 05:06:03;;;;;;;39.45;19.70;;;;;;;;;;2090302;28;20055;-78
2023/10/12 05:08:48;;;;;;;34.80;20.13;;;;;;;;;;2079960;28;20040;-77
2023/10/12 05:10:15;;;;;;;40.85;19.45;;;;;;;;;;2090212;28;20404;-78
2023/10/12 05:11:35;;;;;;;33.15;18.48;;;;;;;;;;2080324;28;20084;-77
2023/10/12 05:13:06;;;;;;;36.97;18.52;;;;;;;;;;2079562;28;20087;-78
2023/10/12 05:14:27;;;;;;;34.25;18.42;;;;;;;;;;2080716;28;20412;-77
2023/10/12 05:16:06;;;;;;;38.05;20.42;;;;;;;;;;2080417;28;20025;-79
2023/10/12 05:17:27;;;;;;;39.60;20.17;;;;;;;;;;2079475;28;20025;-77
2023/10/12 05:18:48;;;;;;;36.08;18.77;;;;;;;;;;2081800;28;20029;-78
2023/10/12 05:20:09;;;;;;;38.80;19.30;;;;;;;;;;2079548;28;20033;-79
2023/10/12 05:21:30;;;;;;;35.22;18.85;;;;;;;;;;2079135;28;20104;-78
2023/10/12 05:22:51;;;;;;;38.25;19.48;;;;;;;;;;2080155;28;20073;-78
2023/10/12 05:24:12;;;;;;;42.65;20.85;;;;;;;;;;2087776;28;20519;-78
2023/10/12 05:25:47;;;;;;;46.38;19.77;;;;;;;;;;2079581;28;20182;-78
2023/10/12 05:27:23;;;;;;;35.47;20.00;;;;;;;;;;2071658;28;20034;-78
2023/10/12 05:28:55;;;;;;;38.78;18.80;;;;;;;;;;2078085;28;20033;-79
2023/10/12 05:30:19;;;;;;;37.00;17.85;;;;;;;;;;2079146;28;20492;-78
2023/10/12 05:31:48;;;;;;;39.70;19.02;;;;;;;;;;2078462;28;20033;-78
2023/10/12 05:33:28;;;;;;;38.60;19.70;;;;;;;;;;2073556;28;20120;-75
2023/10/12 05:34:52;;;;;;;36.15;18.73;;;;;;;;;;2080877;28;20048;-77
2023/10/12 05:36:13;;;;;;;39.67;19.02;;;;;;;;;;2078941;28;20091;-80
2023/10/12 05:37:48;;;;;;;37.17;18.77;;;;;;;;;;2071935;28;20101;-77
2023/10/12 05:39:12;;;;;;;31.65;17.40;;;;;;;;;;2088001;28;20087;-80
2023/10/12 05:40:35;;;;;;;39.53;18.85;;;;;;;;;;2081001;28;20091;-80
2023/10/12 05:41:57;;;;;;;36.40;18.33;;;;;;;;;;2097005;28;20025;-77
2023/10/12 05:43:22;;;;;;;33.65;18.90;;;;;;;;;;2085369;28;20492;-78
2023/10/12 05:44:43;;;;;;;38.35;19.00;;;;;;;;;;2076295;28;20033;-80
2023/10/12 05:46:09;;;;;;;31.48;17.40;;;;;;;;;;2072039;28;20022;-78
2023/10/12 05:47:30;;;;;;;32.80;17.90;;;;;;;;;;2079975;28;20026;-77
2023/10/12 05:48:52;;;;;;;37.63;18.27;;;;;;;;;;2073808;28;20030;-79
2023/10/12 05:50:15;;;;;;;39.23;19.23;;;;;;;;;;2065842;28;20030;-79
2023/10/12 05:51:37;;;;;;;43.13;20.98;;;;;;;;;;2078790;28;20434;-79
2023/10/12 05:53:01;;;;;;;35.85;18.25;;;;;;;;;;2079503;28;20527;-80
2023/10/12 05:54:23;;;;;;;31.13;17.23;;;;;;;;;;2075604;28;20025;-79
2023/10/12 05:55:47;;;;;;;34.63;18.67;;;;;;;;;;2073085;28;20088;-79
2023/10/12 05:57:19;;;;;;;30.27;17.83;;;;;;;;;;2072765;28;20038;-79
2023/10/12 05:58:40;;;;;;;36.95;16.85;;;;;;;;;;2071801;28;20041;-79
2023/10/12 06:00:09;;;;;;;30.05;16.35;;;;;;;;;;2071640;28;20061;-79
2023/10/12 06:01:34;;;;;;;34.85;17.02;;;;;;;;;;2064387;28;20089;-78
2023/10/12 06:02:55;;;;;;;28.90;15.82;;;;;;;;;;2064577;28;20038;-79
2023/10/12 06:04:18;;;;;;;32.00;16.58;;;;;;;;;;2070457;28;20161;-79
2023/10/12 06:05:39;;;;;;;37.58;18.92;;;;;;;;;;2083573;28;20025;-80
2023/10/12 06:07:00;;;;;;;29.17;16.65;;;;;;;;;;2082401;28;20479;-78
2023/10/12 06:08:24;;;;;;;38.17;19.60;;;;;;;;;;2073154;28;20125;-79
2023/10/12 06:09:45;;;;;;;34.63;16.88;;;;;;;;;;2075334;28;20058;-79
2023/10/12 06:11:07;;;;;;;30.95;16.73;;;;;;;;;;2080762;28;20037;-79
2023/10/12 06:12:29;;;;;;;32.30;15.43;;;;;;;;;;2079066;28;20029;-79
2023/10/12 06:13:52;;;;;;;32.67;15.85;;;;;;;;;;2078806;28;20021;-79
2023/10/12 06:15:21;;;;;;;30.35;15.65;;;;;;;;;;2075132;28;20095;-78
2023/10/12 06:16:44;;;;;;;29.70;15.25;;;;;;;;;;2076839;28;20040;-79
2023/10/12 06:18:05;;;;;;;33.08;15.70;;;;;;;;;;2072604;28;20319;-79
2023/10/12 06:19:26;;;;;;;28.45;15.48;;;;;;;;;;2084945;28;20045;-79
2023/10/12 06:21:06;;;;;;;31.08;15.43;;;;;;;;;;2083257;28;20021;-79
2023/10/12 06:22:32;;;;;;;32.00;16.42;;;;;;;;;;2071894;28;20038;-79
2023/10/12 06:23:53;;;;;;;33.28;16.80;;;;;;;;;;2077968;28;20032;-79
2023/10/12 06:25:18;;;;;;;30.23;16.02;;;;;;;;;;2081018;28;20029;-79
2023/10/12 06:26:44;;;;;;;29.85;15.60;;;;;;;;;;2088656;28;20531;-79
2023/10/12 06:28:16;;;;;;;28.50;14.70;;;;;;;;;;2075297;28;20470;-80
2023/10/12 06:29:37;;;;;;;;;;;;;;;;;;2080754;28;20029;-78
2023/10/12 06:30:59;;;;;;;30.35;16.08;;;;;;;;;;2080591;28;19916;-80
2023/10/12 06:32:25;;;;;;;;;;;;;;;;;;2081290;28;20033;-80
2023/10/12 06:33:48;;;;;;;38.60;16.92;;;;;;;;;;2091187;28;19920;-79
2023/10/12 06:36:39;;;;;;;28.52;15.35;;;;;;;;;;2080613;28;20053;-80
2023/10/12 06:38:15;;;;;;;27.60;15.45;;;;;;;;;;2080610;28;20331;-79
2023/10/12 06:42:09;;;;;;;38.42;15.68;;;;;;;;;;2081451;28;20034;-79
2023/10/12 06:44:33;;;;;;;30.42;15.48;;;;;;;;;;2075813;28;20029;-79
2023/10/12 06:45:55;;;;;;;26.20;14.35;;;;;;;;;;2091925;28;20498;-80
2023/10/12 06:47:28;;;;;;;31.75;14.90;;;;;;;;;;2086778;28;20022;-79
2023/10/12 06:48:58;;;;;;;31.63;15.27;;;;;;;;;;2087280;28;20037;-80
2023/10/12 06:50:20;;;;;;;29.70;17.00;;;;;;;;;;2081825;28;20488;-78
2023/10/12 06:51:41;;;;;;;33.10;16.50;;;;;;;;;;2085133;28;20450;-78
2023/10/12 06:53:06;;;;;;;31.80;15.27;;;;;;;;;;2073561;28;20038;-78
2023/10/12 06:55:58;;;;;;;31.52;17.45;;;;;;;;;;2082024;28;20489;-78
2023/10/12 06:58:41;;;;;;;31.67;15.20;;;;;;;;;;2078225;28;20033;-78
2023/10/12 07:01:27;;;;;;;24.80;14.63;;;;;;;;;;2071078;28;20034;-78
2023/10/12 07:02:51;;;;;;;;;;;;;;;;;;2092982;28;20484;-79
2023/10/12 07:04:15;;;;;;;28.27;16.52;;;;;;;;;;2082370;28;20236;-78
2023/10/12 07:05:38;;;;;;;30.33;14.70;;;;;;;;;;2086172;28;20033;-78
2023/10/12 07:07:10;;;;;;;30.48;14.70;;;;;;;;;;2080905;28;20496;-78
2023/10/12 07:08:31;;;;;;;31.52;14.80;;;;;;;;;;2079439;28;20041;-79
2023/10/12 07:09:51;;;;;;;29.88;14.75;;;;;;;;;;2082165;28;20397;-78
2023/10/12 07:11:20;;;;;;;33.05;15.80;;;;;;;;;;2075296;28;20137;-78
2023/10/12 07:12:44;;;;;;;31.98;16.92;;;;;;;;;;2081979;28;20056;-78
2023/10/12 07:14:05;;;;;;;36.40;16.73;;;;;;;;;;2073538;28;20030;-75
2023/10/12 07:15:31;;;;;;;32.30;16.08;;;;;;;;;;2079224;28;20501;-73
2023/10/12 07:16:54;;;;;;;35.10;15.07;;;;;;;;;;2081076;28;20037;-73
2023/10/12 07:18:16;;;;;;;30.20;15.25;;;;;;;;;;2080502;28;20434;-73
2023/10/12 07:19:53;;;;;;;32.67;16.80;;;;;;;;;;2086405;28;20178;-73
2023/10/12 07:21:21;;;;;;;24.95;15.30;;;;;;;;;;2081814;28;20029;-73
2023/10/12 07:22:42;;;;;;;32.17;15.27;;;;;;;;;;2085833;28;20037;-73
2023/10/12 07:24:07;;;;;;;31.35;15.82;;;;;;;;;;2085904;28;20473;-74
2023/10/12 07:25:34;;;;;;;29.65;15.85;;;;;;;;;;2081463;28;20037;-72
2023/10/12 07:27:09;;;;;;;25.05;14.15;;;;;;;;;;2082490;28;20064;-73
2023/10/12 07:28:33;;;;;;;29.88;15.57;;;;;;;;;;2087495;28;20432;-73
2023/10/12 07:30:30;;;;;;;27.17;14.90;;;;;;;;;;2086648;28;20044;-73
2023/10/12 07:31:48;;;;;;;30.90;15.95;;;;;;;;;;2082545;28;20558;-73
2023/10/12 07:33:09;;;;;;;29.70;15.60;;;;;;;;;;2088511;28;20041;-73
2023/10/12 07:34:30;;;;;;;27.25;15.43;;;;;;;;;;2083658;28;20033;-72
2023/10/12 07:35:53;;;;;;;29.63;14.23;;;;;;;;;;2073713;28;20493;-73
2023/10/12 07:37:14;;;;;;;28.00;15.60;;;;;;;;;;2079061;28;20049;-72
2023/10/12 07:38:35;;;;;;;29.63;13.85;;;;;;;;;;2080188;28;20061;-73
2023/10/12 07:39:56;;;;;;;24.27;14.15;;;;;;;;;;2079987;28;20022;-73
2023/10/12 07:41:27;;;;;;;32.97;16.13;;;;;;;;;;2074701;28;20042;-72
2023/10/12 07:42:49;;;;;;;26.77;14.45;;;;;;;;;;2073058;28;20041;-73
2023/10/12 07:44:10;;;;;;;31.77;14.57;;;;;;;;;;2081236;28;20025;-72
2023/10/12 07:45:33;;;;;;;35.08;15.40;;;;;;;;;;2081093;28;20037;-72
2023/10/12 07:46:57;;;;;;;28.30;14.18;;;;;;;;;;2089575;28;20025;-72
2023/10/12 07:50:07;;;;;;;27.92;14.80;;;;;;;;;;2086288;28;20456;-73
2023/10/12 07:51:30;;;;;;;34.42;15.98;;;;;;;;;;2073844;28;20050;-72
2023/10/12 07:53:05;;;;;;;29.77;15.27;;;;;;;;;;2089512;28;20096;-73
2023/10/12 07:54:47;;;;;;;31.70;15.00;;;;;;;;;;2082859;28;20095;-73
2023/10/12 07:56:07;;;;;;;29.95;14.20;;;;;;;;;;2081866;28;20064;-73
2023/10/12 07:57:31;;;;;;;30.40;14.80;;;;;;;;;;2081311;28;20038;-72
2023/10/12 07:58:57;;;;;;;35.05;15.68;;;;;;;;;;2080120;28;20420;-73
2023/10/12 08:00:41;;;;;;;28.35;13.55;;;;;;;;;;2075588;28;20060;-73
2023/10/12 08:02:08;;;;;;;31.20;16.05;;;;;;;;;;2086987;28;20045;-72
2023/10/12 08:03:36;;;;;;;36.10;17.00;;;;;;;;;;2087733;28;20029;-72
2023/10/12 08:05:05;;;;;;;27.73;14.27;;;;;;;;;;2082862;28;20032;-73
2023/10/12 08:12:24;;;;;;;31.10;15.60;;;;;;;;;;2077922;28;20033;-73
2023/10/12 08:13:54;;;;;;;28.42;14.50;;;;;;;;;;2078351;28;20025;-73
2023/10/12 08:15:16;;;;;;;30.23;14.95;;;;;;;;;;2084426;28;20025;-73
2023/10/12 08:16:40;;;;;;;34.33;17.77;;;;;;;;;;2081088;28;20030;-73
2023/10/12 08:18:50;;;;;;;27.25;14.90;;;;;;;;;;2080204;28;20049;-74
2023/10/12 08:19:45;;;;;;;34.40;15.55;;;;;;;;;;2081513;28;20033;-73
2023/10/12 08:22:39;;;;;;;30.85;15.45;;;;;;;;;;2081710;28;20041;-73
2023/10/12 08:25:37;;;;;;;26.30;14.05;;;;;;;;;;2085498;28;20051;-74
2023/10/12 08:26:58;;;;;;;32.83;15.50;;;;;;;;;;2080577;28;20037;-74
2023/10/12 08:28:19;;;;;;;30.65;15.68;;;;;;;;;;2073604;28;20095;-74
2023/10/12 08:31:05;;;;;;;34.45;16.10;;;;;;;;;;2083240;28;20392;-74
2023/10/12 08:33:49;;;;;;;30.42;15.20;;;;;;;;;;2081609;28;20399;-74
2023/10/12 08:35:11;;;;;;;29.60;14.32;;;;;;;;;;2086743;28;20341;-74
2023/10/12 08:36:38;;;;;;;34.88;15.77;;;;;;;;;;2083028;28;20041;-74
2023/10/12 08:38:15;;;;;;;38.85;16.35;;;;;;;;;;2074224;28;20030;-74
2023/10/12 08:39:37;;;;;;;30.80;14.52;;;;;;;;;;2081339;28;20512;-74
2023/10/12 08:41:56;;;;;;;;;;;;;;;;;;2081935;28;20542;-74
2023/10/12 08:42:55;;;;;;;26.33;13.82;;;;;;;;;;2080909;28;20213;-75
2023/10/12 08:44:19;;;;;;;37.15;15.23;;;;;;;;;;2081698;28;20040;-75
2023/10/12 08:45:40;;;;;;;31.65;16.27;;;;;;;;;;2081691;28;20037;-74
2023/10/12 08:47:09;;;;;;;29.85;14.95;;;;;;;;;;2081336;28;20076;-74
2023/10/12 08:48:35;;;;;;;29.38;15.10;;;;;;;;;;2074904;28;20034;-74
2023/10/12 08:50:05;;;;;;;27.25;15.48;;;;;;;;;;2079312;28;20128;-75
2023/10/12 08:51:29;;;;;;;26.85;14.45;;;;;;;;;;2081133;28;20025;-75
2023/10/12 08:52:50;;;;;;;28.55;14.13;;;;;;;;;;2081339;28;20420;-75
2023/10/12 08:54:16;;;;;;;29.80;14.60;;;;;;;;;;2078332;28;20033;-75
2023/10/12 08:55:38;;;;;;;29.20;15.15;;;;;;;;;;2082278;28;20049;-74
2023/10/12 08:57:01;;;;;;;27.17;14.23;;;;;;;;;;2080521;28;20026;-75
2023/10/12 08:58:39;;;;;;;33.47;16.77;;;;;;;;;;2079850;28;20407;-75
2023/10/12 09:02:18;;;;;;;30.13;14.95;;;;;;;;;;2070492;28;20437;-75
2023/10/12 09:03:44;;;;;;;32.22;14.93;;;;;;;;;;2069712;28;20038;-74
2023/10/12 09:05:10;;;;;;;29.02;14.95;;;;;;;;;;2062707;28;20034;-75
2023/10/12 09:09:49;;;;;;;30.67;16.67;;;;;;;;;;2075560;28;20033;-75
2023/10/12 09:12:38;;;;;;;37.05;15.77;;;;;;;;;;2078724;28;20033;-75
2023/10/12 09:13:59;;;;;;;31.08;15.05;;;;;;;;;;2080463;28;20030;-73
2023/10/12 09:15:29;;;;;;;26.45;14.27;;;;;;;;;;2080784;28;20040;-74
2023/10/12 09:16:54;;;;;;;33.28;15.75;;;;;;;;;;2080506;28;20037;-74
2023/10/12 09:18:18;;;;;;;28.38;15.13;;;;;;;;;;2079584;28;20099;-74
2023/10/12 09:19:39;;;;;;;29.45;14.90;;;;;;;;;;2075651;28;20030;-75
2023/10/12 09:22:27;;;;;;;34.78;15.20;;;;;;;;;;2083161;28;20048;-74
2023/10/12 09:27:26;;;;;;;31.23;14.88;;;;;;;;;;2081416;28;20025;-75
2023/10/12 09:30:15;;;;;;;28.92;15.50;;;;;;;;;;2079290;28;20029;-76
2023/10/12 09:33:44;;;;;;;30.42;16.50;;;;;;;;;;2078755;28;20040;-77
2023/10/12 09:35:33;;;;;;;32.85;16.42;;;;;;;;;;2081506;28;20033;-77
2023/10/12 09:36:37;;;;;;;29.85;16.17;;;;;;;;;;2076546;28;20065;-75
2023/10/12 09:37:58;;;;;;;37.35;16.45;;;;;;;;;;2089309;28;20032;-76